Weather at Kelaynak Aviation Club Airport

Public forecast

Using degrees Celsius for public forecast. Weather courtesy of forecast.io.

Closest aviation weather report (METAR) to Kelaynak Aviation Club Airport

Closest report is İncirlik Air Base, 7.6 nm (14.1 km) WNW.

2024/05/26 07:50 (retrieved 34 minutes ago)

LTAG 260750Z 09003KT 9999 SCT035 BKN100 25/17 Q1011 NOSIG

Closest aviation forecast (TAF) to Kelaynak Aviation Club Airport

Closest forecast is İncirlik Air Base, 7.6 nm (14.1 km) WNW.

2024/05/26 06:03 (retrieved 2 hours ago)

TAF LTAG 260440Z 2606/2706 VRB02KT 9999 SCT035 TEMPO 2610/2614 BKN035 BECMG 2615/2617 CAVOK BECMG 2620/2622 SCT030 PROB30 TEMPO 2703/2706 -TSRA FEW020CB BKN030